M I D A S
Marine Information and Data Acquisition System
Tripno 1817 of the Zeeleeuw from 2009-09-30 06:58:40 to 2009-09-30 13:44:59
Back to CruiseResearch ActivitiesStationsMapUnderway DataData graphs

EquipmentUnitsComment
TimeDGPSUTC
LatitudeDGPSDM.mWGS84
LongitudeDGPSDM.mWGS84
TemperatureSBE03/SBE38deg celciusITS90
ConductivitySBE21S/mITS90
SalinitySBE21 Practical Salinity Units
ChlorophylAChelsea fluorimeterg/lCalibrated in Aceton
Missing or incorrect values are displayed as -999
Sea surface data collected by the RV Zeeleeuw from 2009-09-30 06:32:28 to 2009-09-30 16:21:44
Time Latitude Longitude Temperature Conductivity Salinity ChlorophylA
2009-09-30 06:33:34 51°13.662 2°55.96 17.356 4.121506 31.365983 29.296359
2009-09-30 06:34:34 51°13.663 2°55.96 17.347 4.121403 31.368196 29.366007
2009-09-30 06:35:34 51°13.663 2°55.96 17.342 4.120884 31.369365 29.400831
2009-09-30 06:36:34 51°13.663 2°55.96 17.341 4.120884 31.374318 29.435655
2009-09-30 06:37:34 51°13.658 2°55.96 17.3304 4.120884 31.376795 29.435655
2009-09-30 06:38:34 51°13.666 2°55.96 17.3304 4.121403 31.387396 29.435655
2009-09-30 06:39:34 51°13.66 2°55.96 17.3351 4.121922 31.391181 29.400831
2009-09-30 06:40:34 51°13.66 2°55.96 17.3197 4.122233 31.396304 29.366007
2009-09-30 06:41:34 51°13.662 2°55.96 17.3112 4.121611 31.40218 29.400831
2009-09-30 06:42:34 51°13.662 2°55.96 17.3155 4.121092 31.400254 29.366007
2009-09-30 06:43:34 51°13.662 2°55.96 17.3085 4.120988 31.401233 29.400831
2009-09-30 06:44:34 51°13.662 2°55.96 17.3055 4.120262 31.399406 29.366007
2009-09-30 06:45:34 51°13.662 2°55.959 17.2996 4.120885 31.404695 29.366007
2009-09-30 06:46:34 51°13.663 2°55.959 17.2955 4.120988 31.409301 29.366007
2009-09-30 06:47:34 51°13.663 2°55.958 17.3019 4.11269 31.343728 29.331183
2009-09-30 06:48:34 51°13.663 2°55.958 17.3031 4.109992 31.315856 29.296359
2009-09-30 06:49:34 51°13.663 2°55.958 17.3043 4.111548 31.328457 29.261534
2009-09-30 06:50:34 51°13.662 2°55.958 17.3078 4.113001 31.338939 29.261534
2009-09-30 06:51:34 51°13.662 2°55.959 17.3081 4.115075 31.355329 29.261534
2009-09-30 06:52:34 51°13.662 2°55.959 17.2995 4.116528 31.368289 29.22671
2009-09-30 06:53:34 51°13.662 2°55.959 17.2967 4.106154 31.286958 29.22671
2009-09-30 06:54:34 51°13.662 2°55.959 17.2979 4.101279 31.244922 29.22671
2009-09-30 06:55:34 51°13.664 2°55.959 17.2978 4.091113 31.159821 29.261534
2009-09-30 06:56:34 51°13.664 2°55.959 17.2957 4.085408 31.111998 29.261534
2009-09-30 06:57:33 51°13.664 2°55.959 17.2957 4.077732 31.048685 29.261534
2009-09-30 06:58:34 51°13.663 2°55.96 17.2964 4.073375 31.011099 29.261534
2009-09-30 06:59:34 51°13.662 2°55.961 17.2944 4.068293 30.967974 29.261534
2009-09-30 07:00:34 51°13.665 2°55.946 17.2939 4.065181 30.942799 29.296359
2009-09-30 07:01:37 51°13.684 2°55.879 17.3021 4.047652 30.794752 29.296359
2009-09-30 07:02:38 51°13.692 2°55.804 17.2965 4.063521 30.925664 29.574951
2009-09-30 07:03:36 51°13.696 2°55.775 17.2928 4.07628 31.03636 29.644599
2009-09-30 07:04:34 51°13.701 2°55.784 17.2906 4.077524 31.049379 29.679423
2009-09-30 07:05:36 51°13.727 2°55.763 17.2896 4.058646 30.891644 29.679423
2009-09-30 07:06:34 51°13.776 2°55.695 17.2989 4.04288 30.754308 29.679423
2009-09-30 07:07:34 51°13.853 2°55.619 17.2975 4.00658 30.44143 29.644599
2009-09-30 07:08:34 51°13.947 2°55.546 17.2852 4.033753 30.676353 29.679423
2009-09-30 07:09:34 51°14.051 2°55.469 17.2845 4.032094 30.665929 29.679423
2009-09-30 07:10:34 51°14.158 2°55.385 17.2812 4.032509 30.672475 29.714247
2009-09-30 07:11:34 51°14.25 2°55.259 17.255 4.01581 30.540071 29.749071
2009-09-30 07:12:34 51°14.342 2°55.088 17.2097 4.011558 30.519742 29.853543
2009-09-30 07:13:34 51°14.449 2°54.906 17.1962 4.05844 30.949239 30.201784
2009-09-30 07:14:34 51°14.579 2°54.703 17.173 4.105844 31.366794 30.619673
2009-09-30 07:15:34 51°14.709 2°54.49 17.1795 4.136136 31.633148 30.584849
2009-09-30 07:16:34 51°14.847 2°54.294 17.2035 4.168504 31.902498 30.445552
2009-09-30 07:17:34 51°14.994 2°54.122 17.2253 4.189358 32.06667 30.410728
2009-09-30 07:18:34 51°15.134 2°53.938 17.2422 4.204195 32.176237 30.271432
2009-09-30 07:19:34 51°15.193 2°53.668 17.2535 4.212391 32.23478 30.236608
2009-09-30 07:20:34 51°15.2 2°53.366 17.2581 4.218306 32.278278 30.132136
2009-09-30 07:21:34 51°15.206 2°53.063 17.2538 4.221833 32.305861 30.027664
2009-09-30 07:22:34 51°15.224 2°52.761 17.2479 4.224843 32.335413 29.958016
2009-09-30 07:23:35 51°15.246 2°52.456 17.2508 4.227852 32.364975 29.99284
2009-09-30 07:24:49 51°15.273 2°52.083 17.2504 4.230861 32.388773 30.062488
2009-09-30 07:25:49 51°15.294 2°51.78 17.2514 4.231898 32.398285 30.097312
2009-09-30 07:26:49 51°15.318 2°51.477 17.2476 4.233144 32.40893 30.132136
2009-09-30 07:27:49 51°15.34 2°51.174 17.2499 4.234181 32.418443 30.062488
2009-09-30 07:28:49 51°15.362 2°50.879 17.2742 4.239369 32.458947 29.958016
2009-09-30 07:29:49 51°15.389 2°50.584 17.291 4.248604 32.516672 29.888367
2009-09-30 07:30:49 51°15.384 2°50.285 17.3004 4.254311 32.556441 29.888367
2009-09-30 07:31:49 51°15.369 2°49.985 17.3092 4.258254 32.581122 29.923192
2009-09-30 07:32:49 51°15.349 2°49.687 17.3148 4.26116 32.60144 29.958016
2009-09-30 07:33:49 51°15.335 2°49.389 17.3208 4.263442 32.614501 30.027664
2009-09-30 07:34:49 51°15.323 2°49.094 17.323 4.264791 32.622158 30.027664
2009-09-30 07:35:49 51°15.311 2°48.8 17.3236 4.263961 32.614421 29.958016
2009-09-30 07:36:49 51°15.301 2°48.505 17.3219 4.263131 32.607972 29.818719
2009-09-30 07:37:49 51°15.293 2°48.21 17.3235 4.26448 32.618854 29.818719
2009-09-30 07:38:49 51°15.283 2°47.915 17.3215 4.265206 32.625705 29.818719
2009-09-30 07:39:49 51°15.268 2°47.622 17.3202 4.266244 32.635217 29.679423
2009-09-30 07:40:49 51°15.255 2°47.33 17.3229 4.267386 32.645617 29.609775
2009-09-30 07:41:49 51°15.244 2°47.036 17.3227 4.268527 32.654726 29.574951
2009-09-30 07:42:49 51°15.234 2°46.743 17.3188 4.269357 32.661821 29.540127
2009-09-30 07:43:49 51°15.227 2°46.449 17.3174 4.269669 32.667064 29.470479
2009-09-30 07:44:49 51°15.218 2°46.156 17.3114 4.269461 32.667874 29.400831
2009-09-30 07:45:49 51°15.21 2°45.862 17.2924 4.268839 32.670305 29.331183
2009-09-30 07:46:49 51°15.186 2°45.573 17.2816 4.268113 32.675729 29.261534
2009-09-30 07:47:49 51°15.157 2°45.283 17.2763 4.268216 32.684378 29.261534
2009-09-30 07:48:49 51°15.131 2°44.994 17.2745 4.268839 32.693587 29.261534
2009-09-30 07:49:49 51°15.106 2°44.704 17.2722 4.269047 32.697305 29.296359
2009-09-30 07:50:49 51°15.081 2°44.415 17.273 4.269462 32.702151 29.296359
2009-09-30 07:51:49 51°15.057 2°44.126 17.275 4.270603 32.711271 29.296359
2009-09-30 07:52:49 51°15.032 2°43.835 17.2794 4.271433 32.716432 29.331183
2009-09-30 07:53:49 51°15.006 2°43.546 17.2886 4.272056 32.717873 29.366007
2009-09-30 07:54:49 51°14.98 2°43.258 17.2949 4.27299 32.720035 29.366007
2009-09-30 07:55:49 51°14.925 2°42.991 17.3038 4.274131 32.723324 29.366007
2009-09-30 07:56:49 51°14.79 2°42.793 17.3124 4.27465 32.718051 29.366007
2009-09-30 07:57:49 51°14.642 2°42.613 17.3095 4.275895 32.72611 29.366007
2009-09-30 07:58:49 51°14.49 2°42.435 17.3044 4.275895 32.729347 29.366007
2009-09-30 07:59:49 51°14.339 2°42.261 17.2906 4.276622 32.739444 29.366007
2009-09-30 08:00:49 51°14.189 2°42.088 17.2819 4.276726 32.749402 29.366007
2009-09-30 08:01:49 51°14.045 2°41.906 17.2664 4.279009 32.776718 29.366007
2009-09-30 08:02:49 51°13.904 2°41.715 17.2635 4.277245 32.771353 29.400831
2009-09-30 08:03:49 51°13.768 2°41.513 17.2617 4.28316 32.824591 29.400831
2009-09-30 08:04:49 51°13.632 2°41.312 17.2631 4.285858 32.847696 29.435655
2009-09-30 08:05:49 51°13.494 2°41.117 17.259 4.284405 32.838506 29.435655
2009-09-30 08:06:49 51°13.354 2°40.922 17.2602 4.283056 32.825653 29.470479
2009-09-30 08:07:49 51°13.216 2°40.728 17.2613 4.282226 32.819194 29.470479
2009-09-30 08:08:49 51°13.079 2°40.532 17.262 4.281707 32.814101 29.435655
2009-09-30 08:09:49 51°12.942 2°40.34 17.2633 4.281188 32.809009 29.470479
2009-09-30 08:10:49 51°12.809 2°40.143 17.2719 4.280981 32.805282 29.470479
2009-09-30 08:11:49 51°12.68 2°39.942 17.2749 4.280773 32.798959 29.505303
2009-09-30 08:12:49 51°12.557 2°39.732 17.2759 4.280462 32.794346 29.540127
2009-09-30 08:13:49 51°12.436 2°39.52 17.2829 4.28098 32.793593 29.540127
2009-09-30 08:14:49 51°12.32 2°39.303 17.2865 4.281395 32.795847 29.574951
2009-09-30 08:15:49 51°12.207 2°39.082 17.2881 4.282018 32.798579 29.574951
2009-09-30 08:16:49 51°12.094 2°38.86 17.28 4.282122 32.800116 29.609775
2009-09-30 08:17:49 51°11.979 2°38.644 17.2773 4.282018 32.802475 29.609775
2009-09-30 08:18:49 51°11.865 2°38.427 17.2644 4.281499 32.80193 29.609775
2009-09-30 08:19:49 51°11.75 2°38.209 17.259 4.28233 32.818783 29.644599
2009-09-30 08:20:49 51°11.636 2°37.987 17.2557 4.283368 32.83157 29.644599
2009-09-30 08:21:49 51°11.524 2°37.767 17.2499 4.286169 32.859473 29.679423
2009-09-30 08:22:49 51°11.407 2°37.551 17.2471 4.289387 32.892245 29.679423
2009-09-30 08:23:49 51°11.293 2°37.334 17.2475 4.292915 32.92248 29.714247
2009-09-30 08:24:49 51°11.177 2°37.119 17.2512 4.295302 32.939672 29.749071
2009-09-30 08:25:49 51°11.052 2°36.917 17.2527 4.298623 32.968132 29.749071
2009-09-30 08:26:49 51°10.925 2°36.72 17.2573 4.302566 32.999318 29.749071
2009-09-30 08:27:49 51°10.8 2°36.521 17.2592 4.307548 33.038747 29.783895
2009-09-30 08:28:49 51°10.672 2°36.329 17.2612 4.311803 33.074568 29.818719
2009-09-30 08:29:49 51°10.518 2°36.194 17.2643 4.315954 33.108194 29.818719
2009-09-30 08:30:49 51°10.356 2°36.079 17.2745 4.321454 33.152734 29.818719
2009-09-30 08:31:49 51°10.192 2°35.974 17.2755 4.326643 33.19132 29.818719
2009-09-30 08:32:49 51°10.013 2°35.924 17.2839 4.33204 33.23563 29.818719
2009-09-30 08:33:49 51°9.834 2°35.883 17.2956 4.338682 33.283379 29.818719
2009-09-30 08:34:49 51°9.655 2°35.847 17.292 4.343871 33.322612 29.818719
2009-09-30 08:35:49 51°9.478 2°35.804 17.2982 4.347608 33.354001 29.818719
2009-09-30 08:36:49 51°9.309 2°35.761 17.3068 4.351344 33.379446 29.783895
2009-09-30 08:37:49 51°9.227 2°35.799 17.3025 4.353627 33.397711 29.783895
2009-09-30 08:38:49 51°9.198 2°35.881 17.2795 4.351863 33.389845 29.783895
2009-09-30 08:39:49 51°9.18 2°35.962 17.269 4.347712 33.371407 29.818719
2009-09-30 08:40:49 51°9.146 2°36.048 17.2432 4.344598 33.356578 29.818719
2009-09-30 08:41:49 51°9.095 2°36.093 17.2264 4.340447 33.340102 29.853543
2009-09-30 08:42:49 51°9.04 2°36.106 17.2164 4.337645 33.32661 29.888367
2009-09-30 08:43:49 51°8.986 2°36.102 17.2095 4.335985 33.317634 29.888367
2009-09-30 08:44:49 51°8.953 2°36.059 17.1887 4.33339 33.303934 29.958016
2009-09-30 08:45:49 51°8.924 2°36.006 17.186 4.331315 33.299978 29.958016
2009-09-30 08:46:49 51°8.892 2°35.956 17.1774 4.331003 33.297963 29.958016
2009-09-30 08:47:49 51°8.868 2°35.898 17.1709 4.330069 33.297868 29.958016
2009-09-30 08:48:49 51°8.838 2°35.845 17.1715 4.329966 33.29896 29.958016
2009-09-30 08:49:49 51°8.815 2°35.786 17.1689 4.330173 33.303391 29.958016
2009-09-30 08:50:49 51°8.795 2°35.724 17.1709 4.330381 33.305175 29.958016
2009-09-30 08:51:49 51°8.772 2°35.662 17.1746 4.3309 33.310299 29.958016
2009-09-30 08:52:49 51°8.748 2°35.599 17.1745 4.331626 33.314561 29.958016
2009-09-30 08:53:49 51°8.726 2°35.536 17.1778 4.331938 33.318561 29.958016
2009-09-30 08:54:49 51°8.703 2°35.472 17.1757 4.332872 33.323284 29.923192
2009-09-30 08:55:49 51°8.679 2°35.409 17.1778 4.333391 33.326422 29.923192
2009-09-30 08:56:49 51°8.656 2°35.346 17.1819 4.334117 33.332669 29.923192
2009-09-30 08:57:49 51°8.633 2°35.283 17.1859 4.335051 33.33739 29.923192
2009-09-30 08:58:49 51°8.614 2°35.217 17.186 4.335674 33.341419 29.888367
2009-09-30 08:59:49 51°8.617 2°35.148 17.1876 4.336815 33.347262 29.888367
2009-09-30 09:00:49 51°8.638 2°35.081 17.1945 4.337438 33.351953 29.853543
2009-09-30 09:01:49 51°8.682 2°35.032 17.1949 4.338476 33.357564 29.853543
2009-09-30 09:02:49 51°8.744 2°35.044 17.1996 4.339617 33.365392 29.853543
2009-09-30 09:03:49 51°8.784 2°35.09 17.207 4.340759 33.372556 29.818719
2009-09-30 09:04:49 51°8.813 2°35.135 17.2108 4.341382 33.373272 29.783895
2009-09-30 09:05:49 51°8.835 2°35.175 17.2126 4.341797 33.375515 29.783895
2009-09-30 09:06:49 51°8.853 2°35.212 17.2111 4.342212 33.377759 29.749071
2009-09-30 09:07:49 51°8.868 2°35.248 17.213 4.342731 33.380894 29.714247
2009-09-30 09:08:49 51°8.88 2°35.285 17.3355 4.34325 33.384029 29.714247
2009-09-30 09:09:49 51°8.89 2°35.322 17.4537 4.344285 33.262974 29.853543
2009-09-30 09:10:49 51°8.899 2°35.36 17.3216 4.361202 33.353175 29.714247
2009-09-30 09:11:49 51°8.912 2°35.401 17.28 4.35425 33.383234 29.679423
2009-09-30 09:12:49 51°8.954 2°35.421 17.2587 4.351137 33.387578 29.783895
2009-09-30 09:13:49 51°8.968 2°35.376 17.2281 4.348646 33.385375 29.783895
2009-09-30 09:14:49 51°8.916 2°35.244 17.2109 4.350515 33.425916 29.853543
2009-09-30 09:15:49 51°8.848 2°35.019 17.1912 4.349788 33.432934 29.888367
2009-09-30 09:16:49 51°8.779 2°34.783 17.1845 4.348024 33.429044 29.853543
2009-09-30 09:17:49 51°8.709 2°34.547 17.1828 4.347402 33.428998 29.818719
2009-09-30 09:18:49 51°8.638 2°34.309 17.1815 4.346986 33.424765 29.923192
2009-09-30 09:19:49 51°8.568 2°34.071 17.1897 4.348336 33.43703 29.783895
2009-09-30 09:20:49 51°8.498 2°33.833 17.1974 4.350723 33.452244 29.749071
2009-09-30 09:21:49 51°8.425 2°33.599 17.1998 4.35311 33.468784 29.749071
2009-09-30 09:22:49 51°8.338 2°33.375 17.2121 4.355082 33.482417 29.644599
2009-09-30 09:23:49 51°8.249 2°33.154 17.2206 4.358403 33.499674 29.574951
2009-09-30 09:24:49 51°8.158 2°32.932 17.2316 4.36079 33.510889 29.574951
2009-09-30 09:25:49 51°8.068 2°32.709 17.2473 4.362554 33.519407 29.679423
2009-09-30 09:26:49 51°7.98 2°32.482 17.2555 4.366498 33.538674 29.505303
2009-09-30 09:27:49 51°7.895 2°32.252 17.2548 4.367225 33.543586 29.505303
2009-09-30 09:28:49 51°7.845 2°32 17.2573 4.368055 33.548724 29.505303
2009-09-30 09:29:49 51°7.851 2°31.733 17.2614 4.368885 33.557187 29.505303
2009-09-30 09:30:49 51°7.978 2°31.549 17.2733 4.372829 33.579762 29.435655
2009-09-30 09:31:49 51°8.166 2°31.484 17.297 4.37968 33.631946 29.400831
2009-09-30 09:32:49 51°8.342 2°31.587 17.322 4.397429 33.759053 29.470479
2009-09-30 09:33:49 51°8.498 2°31.785 17.326 4.400439 33.774217 29.470479
2009-09-30 09:34:49 51°8.652 2°31.991 17.3147 4.400439 33.772213 29.400831
2009-09-30 09:35:49 51°8.81 2°32.189 17.3058 4.398674 33.765743 29.331183
2009-09-30 09:36:49 51°8.956 2°32.404 17.2986 4.397325 33.760833 29.296359
2009-09-30 09:37:49 51°9.065 2°32.669 17.2903 4.395976 33.755922 29.261534
2009-09-30 09:38:49 51°9.153 2°32.962 17.2813 4.3939 33.746103 29.22671
2009-09-30 09:39:49 51°9.244 2°33.261 17.2671 4.385388 33.679653 29.191886
2009-09-30 09:40:49 51°9.341 2°33.559 17.2594 4.377604 33.625435 29.22671
2009-09-30 09:41:49 51°9.439 2°33.864 17.278 4.374386 33.598457 29.22671
2009-09-30 09:42:49 51°9.556 2°34.146 17.2865 4.37449 33.584714 29.22671
2009-09-30 09:43:49 51°9.692 2°34.412 17.2826 4.37615 33.59698 29.261534
2009-09-30 09:44:49 51°9.823 2°34.677 17.292 4.381548 33.63867 29.22671
2009-09-30 09:45:49 51°9.932 2°34.961 17.2835 4.384765 33.664304 29.22671
2009-09-30 09:46:49 51°10.002 2°35.274 17.2739 4.384973 33.673419 29.22671
2009-09-30 09:47:49 51°10.046 2°35.601 17.2984 4.384973 33.678753 29.22671
2009-09-30 09:48:49 51°10.09 2°35.931 17.3599 4.380821 33.607819 29.22671
2009-09-30 09:49:49 51°10.135 2°36.265 17.3638 4.378848 33.558381 29.22671
2009-09-30 09:50:49 51°10.179 2°36.6 17.3654 4.37781 33.546171 29.22671
2009-09-30 09:51:49 51°10.224 2°36.935 17.3763 4.376253 33.534152 29.22671
2009-09-30 09:52:49 51°10.27 2°37.27 17.3792 4.374696 33.505589 29.296359
2009-09-30 09:53:49 51°10.317 2°37.604 17.3577 4.372101 33.487329 29.366007
2009-09-30 09:54:49 51°10.365 2°37.935 17.3477 4.36961 33.480534 29.366007
2009-09-30 09:55:49 51°10.411 2°38.265 17.3407 4.368054 33.473145 29.400831
2009-09-30 09:56:49 51°10.458 2°38.597 17.3563 4.36494 33.449765 29.470479
2009-09-30 09:57:49 51°10.506 2°38.929 17.3574 4.361099 33.404317 29.540127
2009-09-30 09:58:49 51°10.556 2°39.26 17.3547 4.355702 33.358752 29.574951
2009-09-30 09:59:49 51°10.599 2°39.553 17.3366 4.349786 33.318624 29.749071
2009-09-30 10:00:49 51°10.65 2°39.827 17.3386 4.344493 33.280527 29.714247
2009-09-30 10:01:49 51°10.76 2°40.055 17.3386 4.34221 33.259657 29.749071
2009-09-30 10:02:49 51°10.914 2°40.203 17.3455 4.340134 33.241226 29.888367
2009-09-30 10:03:49 51°11.085 2°40.349 17.3654 4.339304 33.232146 29.714247
2009-09-30 10:04:49 51°11.274 2°40.463 17.3758 4.346776 33.276412 29.714247
2009-09-30 10:05:49 51°11.4 2°40.507 17.364 4.339407 33.211382 29.714247
2009-09-30 10:06:49 51°11.461 2°40.605 17.3556 4.338162 33.205971 29.574951
2009-09-30 10:07:49 51°11.492 2°40.731 17.3382 4.3392 33.229288 29.714247
2009-09-30 10:08:49 51°11.493 2°40.857 17.347 4.339096 33.231026 29.540127
2009-09-30 10:09:49 51°11.471 2°40.96 17.3735 4.338577 33.21805 29.574951
2009-09-30 10:10:49 51°11.433 2°41.022 17.3816 4.340341 33.213473 29.644599
2009-09-30 10:11:49 51°11.39 2°41.053 17.3656 4.341483 33.21865 29.783895
2009-09-30 10:12:49 51°11.347 2°41.07 17.3706 4.342002 33.235552 29.818719
2009-09-30 10:13:49 51°11.296 2°41.077 17.3692 4.345946 33.267335 29.714247
2009-09-30 10:14:49 51°11.239 2°41.1 17.3889 4.348852 33.283665 29.679423
2009-09-30 10:15:49 51°11.19 2°41.105 17.3979 4.348021 33.267368 29.609775
2009-09-30 10:16:49 51°11.16 2°41.072 17.3755 4.342313 33.21461 29.609775
2009-09-30 10:17:49 51°11.13 2°41.012 17.3275 4.339926 33.215166 29.574951
2009-09-30 10:18:49 51°11.097 2°40.95 17.3324 4.339096 33.236279 29.644599
2009-09-30 10:19:49 51°11.068 2°40.901 17.3415 4.338266 33.227856 29.644599
2009-09-30 10:20:49 51°11.041 2°40.855 17.3281 4.33837 33.226118 29.679423
2009-09-30 10:21:49 51°11.011 2°40.806 17.3328 4.338266 33.229169 29.749071
2009-09-30 10:22:49 51°10.98 2°40.753 17.3578 4.339096 33.236279 29.853543
2009-09-30 10:23:49 51°10.948 2°40.7 17.3159 4.342729 33.259501 29.749071
2009-09-30 10:24:49 51°10.911 2°40.658 17.3365 4.34304 33.27137 29.749071
2009-09-30 10:25:49 51°10.858 2°40.659 17.3383 4.34304 33.270713 29.679423
2009-09-30 10:26:49 51°10.803 2°40.687 17.3549 4.342729 33.254245 29.714247
2009-09-30 10:27:49 51°10.755 2°40.711 17.3278 4.343767 33.265102 29.714247
2009-09-30 10:28:49 51°10.713 2°40.716 17.2867 4.341172 33.265231 29.818719
2009-09-30 10:29:49 51°10.673 2°40.72 17.2908 4.338371 33.268853 29.888367
2009-09-30 10:30:49 51°10.631 2°40.718 17.3077 4.340135 33.277394 29.853543
2009-09-30 10:31:49 51°10.592 2°40.702 17.3207 4.342107 33.279814 29.783895
2009-09-30 10:32:49 51°10.563 2°40.668 17.3188 4.343352 33.284562 29.818719
2009-09-30 10:33:49 51°10.554 2°40.637 17.3161 4.343767 33.288778 29.818719
2009-09-30 10:34:49 51°10.554 2°40.628 17.3153 4.344078 33.289471 29.818719
2009-09-30 10:35:49 51°10.557 2°40.631 17.3264 4.343767 33.290752 29.783895
2009-09-30 10:36:49 51°10.559 2°40.644 17.313 4.344494 33.291711 29.749071
2009-09-30 10:37:49 51°10.563 2°40.662 17.3045 4.343767 33.295361 29.749071
2009-09-30 10:38:49 51°10.566 2°40.683 17.3037 4.343456 33.295326 29.749071
2009-09-30 10:39:49 51°10.57 2°40.707 17.3027 4.343352 33.29773 29.749071
2009-09-30 10:40:49 51°10.571 2°40.684 17.3205 4.34356 33.29885 29.714247
2009-09-30 10:41:49 51°10.564 2°40.55 17.3041 4.344701 33.298756 29.958016
2009-09-30 10:42:49 51°10.542 2°40.501 17.3096 4.344494 33.304222 29.923192
2009-09-30 10:43:49 51°10.521 2°40.497 17.3094 4.344909 33.30778 29.923192
2009-09-30 10:44:49 51°10.493 2°40.485 17.3124 4.345739 33.310944 29.853543
2009-09-30 10:45:49 51°10.495 2°40.355 17.3125 4.346362 33.312328 29.853543
2009-09-30 10:46:49 51°10.495 2°40.123 17.3101 4.346569 33.31806 29.923192
2009-09-30 10:47:49 51°10.489 2°39.857 17.3103 4.347711 33.327185 29.923192
2009-09-30 10:48:49 51°10.472 2°39.588 17.3124 4.349475 33.342308 29.888367
2009-09-30 10:49:49 51°10.45 2°39.323 17.3336 4.352174 33.358183 29.783895
2009-09-30 10:50:49 51°10.431 2°39.057 17.3342 4.355391 33.373224 29.679423
2009-09-30 10:51:49 51°10.413 2°38.791 17.3434 4.359958 33.414337 29.644599
2009-09-30 10:52:49 51°10.396 2°38.523 17.3659 4.3666 33.458048 29.749071
2009-09-30 10:53:49 51°10.377 2°38.253 17.3648 4.371686 33.489723 29.574951
2009-09-30 10:54:49 51°10.359 2°37.982 17.3494 4.376046 33.529724 29.470479
2009-09-30 10:55:49 51°10.353 2°37.71 17.3304 4.378225 33.560335 29.400831
2009-09-30 10:56:49 51°10.359 2°37.44 17.343 4.379679 33.583411 29.331183
2009-09-30 10:57:49 51°10.367 2°37.175 17.3329 4.38082 33.585237 29.331183
2009-09-30 10:58:49 51°10.416 2°36.917 17.3094 4.381236 33.601414 29.331183
2009-09-30 10:59:49 51°10.493 2°36.67 17.3063 4.381651 33.620263 29.296359
2009-09-30 11:00:49 51°10.635 2°36.5 17.3093 4.384765 33.645659 29.296359
2009-09-30 11:01:49 51°10.824 2°36.503 17.3185 4.388294 33.67462 29.261534
2009-09-30 11:02:49 51°10.999 2°36.654 17.3201 4.39338 33.708949 29.296359
2009-09-30 11:03:49 51°11.163 2°36.847 17.3148 4.39255 33.708487 29.261534
2009-09-30 11:04:49 51°11.331 2°37.034 17.3157 4.391616 33.701134 29.22671
2009-09-30 11:05:49 51°11.503 2°37.21 17.3243 4.392031 33.6987 29.191886
2009-09-30 11:06:49 51°11.679 2°37.377 17.331 4.393173 33.703835 29.157062
2009-09-30 11:07:49 51°11.855 2°37.541 17.3307 4.391615 33.687809 29.122238
2009-09-30 11:08:49 51°12.046 2°37.571 17.3361 4.38819 33.659083 29.157062
2009-09-30 11:09:49 51°12.238 2°37.532 17.3315 4.384453 33.623036 29.191886
2009-09-30 11:10:49 51°12.43 2°37.489 17.3392 4.380302 33.586761 29.296359
2009-09-30 11:11:49 51°12.621 2°37.445 17.3209 4.373347 33.527126 29.366007
2009-09-30 11:12:49 51°12.811 2°37.401 17.3017 4.363902 33.461368 29.366007
2009-09-30 11:13:49 51°13.001 2°37.356 17.2946 4.360996 33.449016 29.366007
2009-09-30 11:14:49 51°13.19 2°37.315 17.293 4.358194 33.430272 29.366007
2009-09-30 11:15:49 51°13.38 2°37.272 17.2994 4.356637 33.416257 29.400831
2009-09-30 11:16:49 51°13.569 2°37.231 17.3038 4.356637 33.410308 29.400831
2009-09-30 11:17:49 51°13.761 2°37.189 17.2889 4.356845 33.411427 29.366007
2009-09-30 11:18:49 51°13.949 2°37.137 17.2807 4.34958 33.365633 29.400831
2009-09-30 11:19:49 51°14.04 2°36.93 17.279 4.345532 33.333556 29.400831
2009-09-30 11:20:49 51°13.969 2°36.697 17.3 4.34356 33.313347 29.435655
2009-09-30 11:21:49 51°13.861 2°36.48 17.3039 4.346985 33.32689 29.470479
2009-09-30 11:22:49 51°13.752 2°36.265 17.3287 4.349579 33.344517 29.505303
2009-09-30 11:23:49 51°13.647 2°36.047 17.3324 4.356637 33.386534 29.505303
2009-09-30 11:24:49 51°13.543 2°35.83 17.3379 4.360477 33.418124 29.505303
2009-09-30 11:25:49 51°13.44 2°35.614 17.3367 4.362968 33.435508 29.505303
2009-09-30 11:26:49 51°13.346 2°35.39 17.3435 4.364421 33.445318 29.470479
2009-09-30 11:27:49 51°13.263 2°35.155 17.3385 4.364421 33.444657 29.470479
2009-09-30 11:28:49 51°13.181 2°34.918 17.3457 4.366808 33.465115 29.470479
2009-09-30 11:29:52 51°13.096 2°34.666 17.3495 4.369922 33.485848 29.435655
2009-09-30 11:30:52 51°13.012 2°34.427 17.3607 4.372205 33.500124 29.470479
2009-09-30 11:31:51 51°12.929 2°34.192 17.3615 4.374281 33.512618 29.505303
2009-09-30 11:32:52 51°12.841 2°33.951 17.3647 4.375423 33.521739 29.470479
2009-09-30 11:33:51 51°12.755 2°33.72 17.3583 4.376668 33.532412 29.470479
2009-09-30 11:34:52 51°12.668 2°33.478 17.3618 4.378329 33.545318 29.470479
2009-09-30 11:35:51 51°12.591 2°33.24 17.3583 4.379886 33.559986 29.470479
2009-09-30 11:36:51 51°12.599 2°32.973 17.36 4.381339 33.575755 29.470479
2009-09-30 11:37:51 51°12.75 2°32.826 17.3518 4.382585 33.584442 29.435655
2009-09-30 11:38:52 51°12.939 2°32.744 17.3504 4.381132 33.579945 29.400831
2009-09-30 11:39:52 51°13.125 2°32.848 17.3553 4.380301 33.57548 29.470479
2009-09-30 11:40:52 51°13.302 2°33.02 17.399 4.38082 33.565341 29.366007
2009-09-30 11:41:52 51°13.468 2°33.227 17.4141 4.38684 33.58842 29.366007
2009-09-30 11:42:51 51°13.632 2°33.43 17.4127 4.389642 33.600492 29.366007
2009-09-30 11:43:52 51°13.802 2°33.64 17.3904 4.389019 33.602449 29.331183
2009-09-30 11:44:51 51°13.964 2°33.844 17.3778 4.382584 33.565219 29.366007
2009-09-30 11:45:52 51°14.13 2°34.051 17.3341 4.375942 33.518243 29.470479
2009-09-30 11:46:52 51°14.292 2°34.253 17.3272 4.363902 33.442192 29.400831
2009-09-30 11:47:52 51°14.453 2°34.456 17.3222 4.358194 33.405818 29.505303
2009-09-30 11:48:52 51°14.616 2°34.659 17.3372 4.357882 33.399188 29.435655
2009-09-30 11:49:51 51°14.777 2°34.862 17.3465 4.357882 33.389948 29.400831
2009-09-30 11:50:51 51°14.943 2°35.067 17.3679 4.359231 33.394911 29.435655
2009-09-30 11:51:51 51°15.108 2°35.274 17.3974 4.360165 33.387085 29.470479
2009-09-30 11:52:52 51°15.272 2°35.486 17.3348 4.360165 33.37259 29.505303
2009-09-30 11:53:51 51°15.431 2°35.688 17.326 4.352796 33.351652 29.540127
2009-09-30 11:54:52 51°15.596 2°35.897 17.3339 4.350721 33.337162 29.505303
2009-09-30 11:55:52 51°15.76 2°36.101 17.345 4.351136 33.333472 29.505303
2009-09-30 11:56:51 51°15.919 2°36.309 17.3577 4.351551 33.329126 29.470479
2009-09-30 11:57:51 51°16.081 2°36.522 17.3595 4.352173 33.325243 29.470479
2009-09-30 11:58:52 51°16.246 2°36.739 17.3642 4.351758 33.321031 29.470479
2009-09-30 11:59:52 51°16.408 2°36.95 17.3647 4.35155 33.312676 29.470479
2009-09-30 12:00:51 51°16.569 2°37.158 17.3781 4.351343 33.309584 29.470479
2009-09-30 12:01:52 51°16.735 2°37.376 17.4083 4.35155 33.300185 29.470479
2009-09-30 12:02:51 51°16.9 2°37.581 17.4193 4.352795 33.286541 29.435655
2009-09-30 12:03:51 51°17.063 2°37.798 17.4035 4.353522 33.293409 29.470479
2009-09-30 12:04:52 51°17.229 2°38.017 17.3827 4.352484 33.293068 29.470479
2009-09-30 12:05:52 51°17.392 2°38.232 17.381 4.350824 33.299883 29.505303
2009-09-30 12:06:52 51°17.556 2°38.446 17.4043 4.351031 33.295745 29.470479
2009-09-30 12:07:52 51°17.721 2°38.66 17.4091 4.351758 33.284885 29.505303
2009-09-30 12:08:52 51°17.887 2°38.87 17.3951 4.351757 33.282916 29.505303
2009-09-30 12:09:51 51°18.049 2°39.078 17.3699 4.351343 33.290527 29.505303
2009-09-30 12:10:51 51°18.212 2°39.294 17.3614 4.350097 33.299581 29.505303
2009-09-30 12:11:51 51°18.376 2°39.507 17.3586 4.350305 33.30596 29.505303
2009-09-30 12:12:51 51°18.549 2°39.677 17.3614 4.350513 33.311026 29.540127
2009-09-30 12:13:52 51°18.746 2°39.687 17.3525 4.351447 33.319681 29.540127
2009-09-30 12:14:52 51°18.857 2°39.485 17.3913 4.353211 33.339397 29.574951
2009-09-30 12:15:52 51°18.819 2°39.233 17.388 4.361203 33.374887 29.574951
2009-09-30 12:16:52 51°18.727 2°39 17.3961 4.365251 33.412826 29.609775
2009-09-30 12:17:52 51°18.628 2°38.773 17.377 4.367534 33.431712 29.609775
2009-09-30 12:18:52 51°18.526 2°38.546 17.3723 4.366704 33.4345 29.609775
2009-09-30 12:19:52 51°18.425 2°38.318 17.379 4.367223 33.439604 29.609775
2009-09-30 12:20:52 51°18.339 2°38.075 17.3898 4.367846 33.443616 29.609775
2009-09-30 12:21:52 51°18.256 2°37.827 17.3837 4.370233 33.451514 29.609775
2009-09-30 12:22:52 51°18.16 2°37.594 17.3953 4.371063 33.463244 29.609775
2009-09-30 12:23:51 51°18.052 2°37.375 17.3931 4.373243 33.477282 29.609775
2009-09-30 12:24:52 51°17.939 2°37.149 17.397 4.374903 33.490179 29.609775
2009-09-30 12:25:52 51°17.828 2°36.927 17.4346 4.37864 33.518865 29.679423
2009-09-30 12:26:52 51°17.712 2°36.713 17.4452 4.385698 33.550846 29.679423
2009-09-30 12:27:52 51°17.584 2°36.516 17.4275 4.388189 33.570179 29.644599
2009-09-30 12:28:52 51°17.442 2°36.341 17.4494 4.39234 33.59975 29.679423
2009-09-30 12:29:51 51°17.302 2°36.171 17.4498 4.395247 33.620647 29.679423
2009-09-30 12:30:51 51°17.161 2°35.994 17.4464 4.396389 33.62843 29.644599
2009-09-30 12:31:47 51°17.03 2°35.827 17.4452 4.396285 33.629529 29.644599
2009-09-30 12:32:57 51°16.866 2°35.619 17.4588 4.397323 33.633111 29.644599
2009-09-30 12:33:58 51°16.722 2°35.436 17.4607 4.398361 33.641992 29.679423
2009-09-30 12:34:57 51°16.584 2°35.258 17.4719 4.400125 33.650463 29.644599
2009-09-30 12:35:57 51°16.442 2°35.079 17.4622 4.401163 33.65603 29.644599
2009-09-30 12:36:57 51°16.305 2°34.906 17.4789 4.401786 33.662021 29.644599
2009-09-30 12:37:57 51°16.216 2°34.815 17.4871 4.405004 33.67629 29.644599
2009-09-30 12:38:57 51°16.124 2°34.789 17.4955 4.406353 33.682529 29.574951
2009-09-30 12:39:57 51°16.061 2°34.789 17.5222 4.407079 33.686091 29.609775
2009-09-30 12:40:57 51°16.016 2°34.787 17.5101 4.409051 33.677116 29.574951
2009-09-30 12:41:57 51°15.975 2°34.772 17.4754 4.405418 33.66063 29.540127
2009-09-30 12:42:57 51°15.935 2°34.734 17.4396 4.39971 33.642936 29.540127
2009-09-30 12:43:57 51°15.905 2°34.679 17.4708 4.397115 33.634647 29.540127
2009-09-30 12:44:57 51°15.889 2°34.611 17.4516 4.399606 33.636088 29.540127
2009-09-30 12:45:57 51°15.885 2°34.536 17.4431 4.398672 33.638031 29.609775
2009-09-30 12:46:57 51°15.879 2°34.461 17.4295 4.396908 33.64016 29.679423
2009-09-30 12:47:57 51°15.855 2°34.394 17.4535 4.39587 33.637241 29.644599
2009-09-30 12:48:57 51°15.812 2°34.343 17.4491 4.398257 33.639779 29.644599
2009-09-30 12:49:58 51°15.765 2°34.291 17.4309 4.397738 33.643953 29.644599
2009-09-30 12:50:57 51°15.721 2°34.242 17.4276 4.3967 33.64435 29.644599
2009-09-30 12:51:57 51°15.675 2°34.194 17.4896 4.397219 33.648792 29.679423
2009-09-30 12:52:57 51°15.631 2°34.147 17.5112 4.4049 33.663477 29.679423
2009-09-30 12:53:58 51°15.593 2°34.1 17.5097 4.406041 33.660658 29.679423
2009-09-30 12:54:57 51°15.559 2°34.055 17.5077 4.404484 33.653969 29.644599
2009-09-30 12:55:58 51°15.524 2°34.009 17.4928 4.405522 33.658208 29.714247
2009-09-30 12:56:58 51°15.489 2°33.962 17.4877 4.40272 33.65676 29.714247
2009-09-30 12:57:58 51°15.455 2°33.915 17.4949 4.40272 33.656097 29.679423
2009-09-30 12:58:58 51°15.42 2°33.868 17.5096 4.404069 33.65704 29.679423
2009-09-30 12:59:57 51°15.385 2°33.822 17.5188 4.406352 33.659348 29.714247
2009-09-30 13:00:58 51°15.35 2°33.774 17.4745 4.405522 33.656884 29.679423
2009-09-30 13:01:57 51°15.318 2°33.725 17.4622 4.401889 33.649658 29.714247
2009-09-30 13:02:58 51°15.293 2°33.665 17.4663 4.399502 33.649774 29.714247
2009-09-30 13:03:58 51°15.275 2°33.601 17.5019 4.401371 33.650518 29.679423
2009-09-30 13:04:58 51°15.263 2°33.531 17.4817 4.405211 33.657532 29.714247
2009-09-30 13:05:58 51°15.271 2°33.462 17.4719 4.403446 33.661649 29.714247
2009-09-30 13:06:57 51°15.305 2°33.419 17.515 4.40272 33.662723 29.749071
2009-09-30 13:07:58 51°15.341 2°33.419 17.5049 4.408428 33.675104 29.783895
2009-09-30 13:08:57 51°15.367 2°33.425 17.4918 4.407183 33.680352 29.749071
2009-09-30 13:09:57 51°15.402 2°33.47 17.5021 4.406145 33.676115 29.783895
2009-09-30 13:10:58 51°15.378 2°33.552 17.5012 4.40791 33.679939 29.853543
2009-09-30 13:11:57 51°15.326 2°33.511 17.5119 4.406456 33.674802 29.818719
2009-09-30 13:12:58 51°15.257 2°33.438 17.4822 4.407183 33.673066 29.818719
2009-09-30 13:13:58 51°15.157 2°33.293 17.4849 4.405003 33.670989 29.888367
2009-09-30 13:14:58 51°15.063 2°33.11 17.4964 4.405522 33.673439 29.923192
2009-09-30 13:15:57 51°15.011 2°32.889 17.5045 4.408221 33.681939 29.888367
2009-09-30 13:16:58 51°14.952 2°32.723 17.5317 4.409259 33.694788 29.888367
2009-09-30 13:17:57 51°14.901 2°32.688 17.4953 4.412165 33.703729 29.783895
2009-09-30 13:18:57 51°14.849 2°32.679 17.5046 4.41009 33.703877 29.818719
2009-09-30 13:19:57 51°14.804 2°32.652 17.4982 4.41092 33.70501 29.783895
2009-09-30 13:20:57 51°14.77 2°32.604 17.4933 4.410505 33.705438 29.923192
2009-09-30 13:21:58 51°14.738 2°32.551 17.4953 4.410297 33.706315 29.749071
2009-09-30 13:22:57 51°14.708 2°32.498 17.4977 4.410297 33.708967 29.749071
2009-09-30 13:23:58 51°14.688 2°32.436 17.5262 4.411231 33.71364 29.783895
2009-09-30 13:24:57 51°14.673 2°32.366 17.5236 4.414968 33.723042 29.783895
2009-09-30 13:25:58 51°14.655 2°32.291 17.5026 4.41476 33.729224 29.818719
2009-09-30 13:26:58 51°14.63 2°32.221 17.4959 4.4131 33.729617 29.888367
2009-09-30 13:27:58 51°14.598 2°32.161 17.5247 4.411439 33.712762 29.888367
2009-09-30 13:28:58 51°14.556 2°32.115 17.5173 4.416421 33.740105 29.888367
2009-09-30 13:29:58 51°14.518 2°32.063 17.5161 4.416421 33.742095 29.853543
2009-09-30 13:30:58 51°14.48 2°32.009 17.5112 4.416525 33.744972 29.853543
2009-09-30 13:31:57 51°14.441 2°31.955 17.5163 4.416629 33.747187 29.888367
2009-09-30 13:32:58 51°14.402 2°31.9 17.5161 4.417148 33.74897 29.888367
2009-09-30 13:33:57 51°14.363 2°31.847 17.5271 4.417563 33.750529 29.888367
2009-09-30 13:34:57 51°14.323 2°31.796 17.5229 4.418601 33.754094 29.888367
2009-09-30 13:35:57 51°14.277 2°31.775 17.5395 4.41829 33.756076 29.958016
2009-09-30 13:36:57 51°14.227 2°31.784 17.5175 4.419535 33.754781 29.958016
2009-09-30 13:37:58 51°14.177 2°31.783 17.5416 4.418186 33.753198 29.923192
2009-09-30 13:38:58 51°14.133 2°31.769 17.5432 4.419639 33.750362 29.923192
2009-09-30 13:39:58 51°14.092 2°31.746 17.5117 4.419016 33.745704 29.923192
2009-09-30 13:40:58 51°14.055 2°31.714 17.464 4.414449 33.739166 29.923192
2009-09-30 13:41:58 51°14.021 2°31.672 17.4969 4.411024 33.731108 29.923192
2009-09-30 13:42:57 51°13.997 2°31.638 17.4932 4.414034 33.736279 29.923192
2009-09-30 13:43:58 51°13.978 2°31.613 17.4863 4.413619 33.738037 29.923192
2009-09-30 13:44:57 51°13.962 2°31.596 17.4915 4.413204 33.737141 29.923192
2009-09-30 13:45:58 51°13.906 2°31.522 17.4957 4.413308 33.738029 29.99284
2009-09-30 13:46:58 51°13.785 2°31.354 17.4954 4.41393 33.741365 30.271432
2009-09-30 13:47:58 51°13.653 2°31.168 17.4986 4.414968 33.746923 30.201784
2009-09-30 13:48:58 51°13.522 2°30.978 17.5031 4.416421 33.754704 30.201784
2009-09-30 13:49:57 51°13.393 2°30.791 17.5105 4.417978 33.765363 30.16696
2009-09-30 13:50:58 51°13.259 2°30.597 17.5072 4.419432 33.773805 30.16696
2009-09-30 13:51:57 51°13.123 2°30.404 17.5081 4.420366 33.782458 30.201784
2009-09-30 13:52:58 51°12.973 2°30.215 17.5121 4.420677 33.78645 30.201784
2009-09-30 13:53:57 51°12.813 2°30.065 17.5164 4.421093 33.788008 30.201784
2009-09-30 13:54:58 51°12.638 2°29.935 17.4989 4.422753 33.800217 30.236608
2009-09-30 13:55:58 51°12.462 2°29.813 17.5312 4.422754 33.808195 30.236608
2009-09-30 13:56:58 51°12.294 2°29.67 17.5614 4.42566 33.804468 30.236608
2009-09-30 13:57:58 51°12.145 2°29.483 17.562 4.435417 33.857947 30.132136
2009-09-30 13:58:57 51°12.001 2°29.294 17.5228 4.441334 33.927149 30.062488
2009-09-30 13:59:58 51°11.852 2°29.1 17.5231 4.439674 33.936283 30.062488
2009-09-30 14:00:57 51°11.707 2°28.911 17.4806 4.434587 33.89877 30.097312
2009-09-30 14:01:58 51°11.567 2°28.697 17.5073 4.430747 33.898579 30.062488
2009-09-30 14:02:58 51°11.476 2°28.434 17.495 4.430435 33.865916 30.062488
2009-09-30 14:03:58 51°11.428 2°28.137 17.4886 4.426698 33.849927 30.062488
2009-09-30 14:04:58 51°11.399 2°27.833 17.5093 4.428152 33.86303 30.097312
2009-09-30 14:05:57 51°11.387 2°27.53 17.5341 4.436041 33.908536 30.16696
2009-09-30 14:06:58 51°11.41 2°27.223 17.4868 4.439362 33.930951 30.132136
2009-09-30 14:07:57 51°11.462 2°26.931 17.4738 4.436041 33.937899 30.132136
2009-09-30 14:08:57 51°11.531 2°26.644 17.506 4.43573 33.938572 30.132136
2009-09-30 14:09:58 51°11.634 2°26.384 17.5223 4.439259 33.946079 30.132136
2009-09-30 14:10:58 51°11.801 2°26.264 17.52 4.444345 33.97291 30.097312
2009-09-30 14:11:58 51°11.976 2°26.328 17.5196 4.448602 34.01267 30.097312
2009-09-30 14:12:57 51°12.114 2°26.518 17.5143 4.451197 34.034211 30.097312
2009-09-30 14:13:58 51°12.252 2°26.723 17.5038 4.449951 34.036265 30.097312
2009-09-30 14:14:57 51°12.39 2°26.918 17.5162 4.44746 34.016943 30.062488
2009-09-30 14:15:58 51°12.53 2°27.12 17.5136 4.448498 34.021146 30.097312
2009-09-30 14:16:58 51°12.668 2°27.32 17.5269 4.448602 34.016683 30.062488
2009-09-30 14:17:58 51°12.806 2°27.517 17.5216 4.449432 34.017771 30.062488
2009-09-30 14:18:58 51°12.945 2°27.714 17.5334 4.445072 33.985808 30.132136
2009-09-30 14:19:58 51°13.084 2°27.907 17.5481 4.443618 33.958683 30.132136
2009-09-30 14:20:58 51°13.222 2°28.103 17.5585 4.442165 33.936249 30.132136
2009-09-30 14:21:58 51°13.358 2°28.302 17.5604 4.441438 33.92204 30.132136
2009-09-30 14:22:58 51°13.496 2°28.5 17.5551 4.441023 33.921821 30.132136
2009-09-30 14:23:57 51°13.631 2°28.691 17.5504 4.440089 33.915167 30.16696
2009-09-30 14:24:58 51°13.772 2°28.889 17.5574 4.439051 33.906959 30.201784
2009-09-30 14:25:57 51°13.906 2°29.082 17.574 4.43739 33.886105 30.201784
2009-09-30 14:26:58 51°14.043 2°29.279 17.5729 4.433133 33.841761 30.236608
2009-09-30 14:27:58 51°14.181 2°29.471 17.5675 4.430123 33.812726 30.236608
2009-09-30 14:28:58 51°14.317 2°29.664 17.5769 4.426697 33.78944 30.271432
2009-09-30 14:29:58 51°14.454 2°29.856 17.5789 4.425867 33.773065 30.271432
2009-09-30 14:30:58 51°14.591 2°30.048 17.576 4.424932 33.767076 30.34108
2009-09-30 14:31:58 51°14.73 2°30.235 17.5645 4.424102 33.763961 30.375904
2009-09-30 14:32:58 51°14.874 2°30.412 17.57 4.42213 33.762364 30.375904
2009-09-30 14:33:58 51°15.019 2°30.592 17.5703 4.422441 33.762371 30.375904
2009-09-30 14:34:58 51°15.164 2°30.772 17.5688 4.422338 33.762811 30.410728
2009-09-30 14:35:59 51°15.311 2°30.956 17.5802 4.422234 33.760598 30.410728
2009-09-30 14:36:59 51°15.451 2°31.143 17.5782 4.421819 33.755062 30.375904
2009-09-30 14:37:59 51°15.585 2°31.342 17.5734 4.42213 33.742483 30.445552
2009-09-30 14:38:59 51°15.719 2°31.539 17.5701 4.419846 33.72431 30.445552
2009-09-30 14:39:59 51°15.855 2°31.735 17.5684 4.418497 33.72007 30.445552
2009-09-30 14:40:59 51°15.992 2°31.928 17.5695 4.417874 33.715414 30.410728
2009-09-30 14:41:59 51°16.127 2°32.124 17.6024 4.418704 33.715885 30.410728
2009-09-30 14:42:59 51°16.264 2°32.316 17.6165 4.423064 33.727292 30.410728
2009-09-30 14:43:59 51°16.4 2°32.509 17.6192 4.425451 33.739062 30.410728
2009-09-30 14:44:59 51°16.536 2°32.699 17.593 4.426074 33.745037 30.375904
2009-09-30 14:45:59 51°16.674 2°32.888 17.5883 4.423583 33.744956 30.375904
2009-09-30 14:46:59 51°16.811 2°33.081 17.5754 4.423479 33.742746 30.410728
2009-09-30 14:47:59 51°16.946 2°33.28 17.5502 4.423272 33.761509 30.410728
2009-09-30 14:48:59 51°17.083 2°33.479 17.5271 4.423479 33.769912 30.410728
2009-09-30 14:49:59 51°17.22 2°33.678 17.522 4.421611 33.778497 30.480376
2009-09-30 14:50:59 51°17.356 2°33.88 17.5247 4.4213 33.775835 30.480376
2009-09-30 14:51:59 51°17.468 2°34.114 17.5309 4.421508 33.77761 30.480376
2009-09-30 14:52:59 51°17.569 2°34.359 17.5211 4.421923 33.77784 30.5152
2009-09-30 14:53:59 51°17.675 2°34.597 17.5496 4.419432 33.768493 30.5152
2009-09-30 14:54:59 51°17.818 2°34.766 17.5555 4.420573 33.763652 30.550024
2009-09-30 14:55:59 51°17.977 2°34.904 17.5616 4.420469 33.757458 30.5152
2009-09-30 14:56:59 51°18.089 2°35.119 17.5749 4.421507 33.759695 30.550024
2009-09-30 14:57:59 51°18.154 2°35.384 17.5644 4.421819 33.761029 30.584849
2009-09-30 14:58:59 51°18.214 2°35.654 17.5592 4.420365 33.750603 30.584849
2009-09-30 14:59:59 51°18.275 2°35.924 17.553 4.418082 33.733745 30.584849
2009-09-30 15:00:59 51°18.339 2°36.191 17.5439 4.414345 33.710431 30.654497
2009-09-30 15:01:59 51°18.408 2°36.455 17.5404 4.410193 33.683563 30.654497
2009-09-30 15:02:59 51°18.47 2°36.721 17.5496 4.406767 33.653633 30.654497
2009-09-30 15:03:59 51°18.484 2°36.998 17.5446 4.402927 33.61818 30.654497
2009-09-30 15:04:59 51°18.424 2°37.265 17.51 4.398048 33.581792 30.724145
2009-09-30 15:05:59 51°18.35 2°37.531 17.4886 4.390368 33.544548 30.654497
2009-09-30 15:06:59 51°18.291 2°37.808 17.4745 4.386008 33.522464 30.689321
2009-09-30 15:07:59 51°18.24 2°38.093 17.4685 4.382376 33.501302 30.689321
2009-09-30 15:08:59 51°18.179 2°38.372 17.4393 4.37428 33.439992 30.654497
2009-09-30 15:09:59 51°18.116 2°38.651 17.4389 4.367326 33.395675 30.654497
2009-09-30 15:10:59 51°18.051 2°38.927 17.4367 4.363589 33.364383 30.689321
2009-09-30 15:11:59 51°17.987 2°39.204 17.4246 4.358919 33.33562 30.689321
2009-09-30 15:12:59 51°17.922 2°39.48 17.4207 4.356013 33.31471 30.689321
2009-09-30 15:13:59 51°17.859 2°39.752 17.4323 4.353937 33.29499 30.724145
2009-09-30 15:14:59 51°17.802 2°40.021 17.4541 4.354352 33.285416 30.724145
2009-09-30 15:15:59 51°17.746 2°40.289 17.4667 4.354767 33.281095 30.793793
2009-09-30 15:16:59 51°17.683 2°40.556 17.464 4.353729 33.261742 30.793793
2009-09-30 15:17:59 51°17.627 2°40.829 17.4617 4.349474 33.231285 30.758969
2009-09-30 15:18:59 51°17.576 2°41.108 17.4502 4.345945 33.198528 30.758969
2009-09-30 15:19:59 51°17.512 2°41.381 17.4324 4.33951 33.157946 30.793793
2009-09-30 15:20:59 51°17.441 2°41.652 17.4165 4.33567 33.133633 30.793793
2009-09-30 15:21:59 51°17.367 2°41.924 17.4231 4.331727 33.109732 30.793793
2009-09-30 15:22:59 51°17.293 2°42.193 17.444 4.330896 33.096113 30.828617
2009-09-30 15:23:59 51°17.223 2°42.461 17.4698 4.330377 33.073428 30.898265
2009-09-30 15:24:59 51°17.154 2°42.716 17.4647 4.329339 33.052849 30.933089
2009-09-30 15:25:59 51°17.087 2°42.971 17.4625 4.326537 33.034141 30.933089
2009-09-30 15:26:59 51°17.017 2°43.234 17.4659 4.326018 33.02581 30.933089
2009-09-30 15:27:59 51°16.946 2°43.498 17.4623 4.325706 33.017952 30.933089
2009-09-30 15:28:59 51°16.875 2°43.764 17.4517 4.323423 33.006271 30.933089
2009-09-30 15:29:59 51°16.805 2°44.032 17.4621 4.321555 32.996829 30.933089
2009-09-30 15:30:59 51°16.736 2°44.303 17.468 4.3228 32.999008 30.933089
2009-09-30 15:31:59 51°16.665 2°44.569 17.4531 4.3228 32.996409 30.933089
2009-09-30 15:32:59 51°16.592 2°44.837 17.4453 4.32114 32.991337 30.933089
2009-09-30 15:33:59 51°16.521 2°45.104 17.4387 4.320206 32.989864 30.898265
2009-09-30 15:34:59 51°16.449 2°45.373 17.4385 4.317715 32.972504 30.898265
2009-09-30 15:35:59 51°16.377 2°45.64 17.4313 4.314394 32.947407 30.898265
2009-09-30 15:36:59 51°16.308 2°45.909 17.4271 4.311385 32.926263 30.863441
2009-09-30 15:37:59 51°16.237 2°46.175 17.433 4.309102 32.910669 30.898265
2009-09-30 15:38:59 51°16.162 2°46.44 17.4276 4.308687 32.907774 30.933089
2009-09-30 15:39:59 51°16.087 2°46.704 17.4457 4.308375 32.905117 30.967913
2009-09-30 15:40:59 51°16.012 2°46.968 17.4431 4.307026 32.889713 30.967913
2009-09-30 15:41:59 51°15.936 2°47.23 17.4409 4.305365 32.863886 31.107209
2009-09-30 15:42:59 51°15.863 2°47.491 17.4626 4.302045 32.836208 31.107209
2009-09-30 15:43:59 51°15.788 2°47.75 17.4535 4.297271 32.786454 31.107209
2009-09-30 15:44:59 51°15.724 2°48.016 17.4525 4.289591 32.726151 31.142033
2009-09-30 15:45:59 51°15.665 2°48.284 17.4715 4.286685 32.696233 31.142033
2009-09-30 15:46:59 51°15.607 2°48.552 17.4655 4.284402 32.66006 31.176857
2009-09-30 15:47:59 51°15.544 2°48.816 17.4337 4.276516 32.605093 31.246506
2009-09-30 15:48:59 51°15.48 2°49.084 17.4116 4.268837 32.566627 31.316154
2009-09-30 15:49:59 51°15.417 2°49.351 17.4062 4.265932 32.556623 31.316154
2009-09-30 15:50:59 51°15.354 2°49.617 17.4172 4.263752 32.541255 31.316154
2009-09-30 15:51:59 51°15.291 2°49.885 17.4561 4.264479 32.532695 31.316154
2009-09-30 15:52:59 51°15.228 2°50.153 17.4512 4.265827 32.523041 31.350978
2009-09-30 15:53:59 51°15.164 2°50.421 17.435 4.261262 32.49248 31.420626
2009-09-30 15:54:59 51°15.1 2°50.687 17.4412 4.258875 32.470875 31.490274
2009-09-30 15:55:59 51°15.035 2°50.952 17.4437 4.254413 32.443106 31.559922
2009-09-30 15:56:59 51°14.97 2°51.217 17.4283 4.253583 32.431563 31.594746
2009-09-30 15:57:59 51°14.907 2°51.48 17.4436 4.251611 32.414137 31.594746
2009-09-30 15:58:59 51°14.853 2°51.743 17.4455 4.252752 32.415555 31.62957
2009-09-30 15:59:59 51°14.801 2°52.008 17.4678 4.254309 32.421782 31.594746
2009-09-30 16:00:59 51°14.753 2°52.274 17.4811 4.255865 32.423541 31.62957
2009-09-30 16:01:59 51°14.705 2°52.544 17.4914 4.256799 32.419366 31.664394
2009-09-30 16:02:59 51°14.657 2°52.812 17.4673 4.256903 32.419611 31.699218
2009-09-30 16:03:59 51°14.609 2°53.073 17.4295 4.253271 32.410398 31.734042
2009-09-30 16:04:59 51°14.579 2°53.234 17.7117 0.131435 0.77338 46.011904
2009-09-30 16:05:59 51°14.547 2°53.385 17.8254 0.116512 0.681855 45.768136
2009-09-30 16:06:59 51°14.514 2°53.616 17.938 0.106426 0.620327 45.80296
2009-09-30 16:07:59 51°14.487 2°53.87 18.0626 0.098089 0.569653 45.663664
2009-09-30 16:08:59 51°14.459 2°54.129 18.1857 0.105088 0.611933 45.663664
2009-09-30 16:09:59 51°14.431 2°54.392 18.311 0.10375 0.603655 45.62884
2009-09-30 16:10:59 51°14.408 2°54.655 18.4173 0.085328 0.492359 45.62884
2009-09-30 16:11:59 51°14.377 2°54.918 18.536 0.087283 0.504027 45.698488
2009-09-30 16:12:59 51°14.308 2°55.173 18.6298 0.113939 0.665105 45.698488
2009-09-30 16:13:59 51°14.182 2°55.359 18.7502 0.094178 0.545228 45.733312
2009-09-30 16:14:59 51°14.046 2°55.47 18.8516 0.09953 0.577455 45.733312
2009-09-30 16:15:59 51°13.946 2°55.545 18.9358 0.09212 0.532617 45.768136
2009-09-30 16:16:59 51°13.86 2°55.608 19.011 0.093355 0.539881 45.80296
2009-09-30 16:17:59 51°13.784 2°55.682 19.0941 0.095208 0.550957 45.837784
2009-09-30 16:18:59 51°13.73 2°55.77 19.1893 0.097781 0.566311 45.872608
2009-09-30 16:19:59 51°13.689 2°55.86 19.2777 0.097575 0.564963 45.907432
2009-09-30 16:20:59 51°13.668 2°55.937 19.4096 0.104367 0.605877 45.942256